Time;durP1;ratioP1;P1;durP2;ratioP2;P2;SDS_P1;SDS_P2;PMS_P1;PMS_P2;Temp;Humidity;BMP_temperature;BMP_pressure;BME280_temperature;BME280_humidity;BME280_pressure;Samples;Min_cycle;Max_cycle;Signal;HPM_P1;HPM_P2
2024/02/07 00:01:52;;;;;;;5.40;2.97;;;3.00;99.90;;;;;;5010492;28;20978;-59
2024/02/07 00:04:18;;;;;;;6.17;3.03;;;2.90;99.90;;;;;;5005082;28;20169;-59
2024/02/07 00:06:43;;;;;;;5.20;3.20;;;2.90;99.90;;;;;;5005206;28;20632;-60
2024/02/07 00:09:09;;;;;;;6.10;3.83;;;2.90;99.90;;;;;;5003572;28;20196;-60
2024/02/07 00:11:34;;;;;;;7.63;3.97;;;2.90;99.90;;;;;;5003730;28;20603;-60
2024/02/07 00:14:00;;;;;;;10.07;4.10;;;2.90;99.90;;;;;;5004883;28;20180;-60
2024/02/07 00:16:26;;;;;;;10.63;3.57;;;2.90;99.90;;;;;;5002523;28;20181;-60
2024/02/07 00:18:51;;;;;;;6.60;3.47;;;2.90;99.90;;;;;;5004320;28;20304;-60
2024/02/07 00:21:17;;;;;;;7.60;3.70;;;2.90;99.90;;;;;;4996848;28;20239;-60
2024/02/07 00:23:43;;;;;;;4.13;3.40;;;2.90;99.90;;;;;;5006278;28;20180;-60
2024/02/07 00:26:09;;;;;;;5.80;3.57;;;2.90;99.90;;;;;;5015158;28;20421;-60
2024/02/07 00:28:34;;;;;;;8.10;3.63;;;3.00;99.90;;;;;;5021591;28;20626;-60
2024/02/07 00:31:00;;;;;;;6.87;3.63;;;3.00;99.90;;;;;;5008075;28;20691;-60
2024/02/07 00:33:26;;;;;;;6.33;3.23;;;3.00;99.90;;;;;;5019782;28;20176;-60
2024/02/07 00:35:51;;;;;;;7.03;3.43;;;3.00;99.90;;;;;;5002826;28;20222;-60
2024/02/07 00:38:17;;;;;;;6.43;4.00;;;3.00;99.90;;;;;;5012635;28;20200;-59
2024/02/07 00:40:43;;;;;;;5.23;3.40;;;3.00;99.90;;;;;;5002528;28;20628;-60
2024/02/07 00:43:08;;;;;;;7.23;3.50;;;3.00;99.90;;;;;;5009310;28;20168;-60
2024/02/07 00:45:34;;;;;;;7.13;3.67;;;3.00;99.90;;;;;;5004602;28;20419;-60
2024/02/07 00:48:00;;;;;;;7.27;3.90;;;3.00;99.90;;;;;;5004228;28;20224;-61
2024/02/07 00:50:25;;;;;;;7.00;3.70;;;3.00;99.90;;;;;;5006986;28;20444;-61
2024/02/07 00:52:51;;;;;;;5.10;3.20;;;3.10;99.90;;;;;;5009809;28;20206;-60
2024/02/07 00:55:17;;;;;;;8.93;4.13;;;3.10;99.90;;;;;;5006388;28;20180;-59
2024/02/07 00:57:42;;;;;;;5.70;3.80;;;3.10;99.90;;;;;;5010921;28;20177;-60
2024/02/07 01:00:13;;;;;;;6.00;3.67;;;3.20;99.90;;;;;;5009443;28;20203;-61
2024/02/07 01:02:41;;;;;;;9.90;3.53;;;3.20;99.90;;;;;;5005848;28;20196;-59
2024/02/07 01:05:08;;;;;;;11.33;3.77;;;3.20;99.90;;;;;;5007930;28;20423;-60
2024/02/07 01:07:34;;;;;;;6.03;3.97;;;3.20;99.90;;;;;;5012926;28;20407;-59
2024/02/07 01:09:59;;;;;;;7.80;3.10;;;3.20;99.90;;;;;;5016513;28;20438;-60
2024/02/07 01:12:25;;;;;;;9.70;3.63;;;3.20;99.90;;;;;;5002830;28;20656;-60
2024/02/07 01:14:52;;;;;;;5.30;2.83;;;3.20;99.90;;;;;;5004656;28;20181;-59
2024/02/07 01:17:18;;;;;;;9.73;3.47;;;3.20;99.90;;;;;;5015375;28;20175;-60
2024/02/07 01:19:44;;;;;;;9.10;3.53;;;3.30;99.90;;;;;;5009152;28;20523;-60
2024/02/07 01:22:10;;;;;;;5.37;3.50;;;3.20;99.90;;;;;;5008965;28;20415;-60
2024/02/07 01:24:36;;;;;;;5.47;3.77;;;3.20;99.90;;;;;;5008292;28;20169;-60
2024/02/07 01:27:04;;;;;;;5.23;4.03;;;3.20;99.90;;;;;;5005912;28;21100;-60
2024/02/07 01:29:30;;;;;;;7.63;4.50;;;3.20;99.90;;;;;;5005886;28;20197;-60
2024/02/07 01:31:56;;;;;;;7.23;3.57;;;3.20;99.90;;;;;;5009858;28;20400;-60
2024/02/07 01:34:22;;;;;;;5.03;3.80;;;3.20;99.90;;;;;;5006977;28;20424;-60
2024/02/07 01:36:47;;;;;;;13.83;4.50;;;3.20;99.90;;;;;;5006317;28;20273;-60
2024/02/07 01:39:18;;;;;;;5.63;3.23;;;3.30;99.90;;;;;;5001284;28;20233;-60
2024/02/07 01:41:59;;;;;;;6.73;3.77;;;3.30;99.90;;;;;;5008989;28;20211;-60
2024/02/07 01:44:26;;;;;;;9.70;3.80;;;3.30;99.90;;;;;;5007626;28;20785;-60
2024/02/07 01:47:08;;;;;;;8.47;3.67;;;3.30;99.90;;;;;;5003587;28;20442;-62
2024/02/07 01:49:33;;;;;;;7.07;3.77;;;3.40;99.90;;;;;;5008851;28;20431;-63
2024/02/07 01:51:59;;;;;;;6.60;3.27;;;3.40;99.90;;;;;;5006304;28;20551;-60
2024/02/07 01:54:25;;;;;;;5.50;3.80;;;3.50;99.90;;;;;;5008414;28;20181;-60
2024/02/07 01:56:52;;;;;;;6.00;3.60;;;3.50;99.90;;;;;;4999867;28;20183;-60
2024/02/07 01:59:20;;;;;;;9.33;3.73;;;3.60;99.90;;;;;;5009510;28;20434;-61
2024/02/07 02:01:46;;;;;;;7.00;3.47;;;3.60;99.90;;;;;;5002604;28;20459;-60
2024/02/07 02:04:12;;;;;;;6.70;4.13;;;3.70;99.90;;;;;;5006802;28;20427;-60
2024/02/07 02:06:37;;;;;;;9.60;3.90;;;3.70;99.90;;;;;;5013398;28;20506;-60
2024/02/07 02:09:05;;;;;;;5.13;3.47;;;3.70;99.90;;;;;;5010227;28;20997;-59
2024/02/07 02:11:35;;;;;;;10.17;4.40;;;3.80;99.90;;;;;;5002837;28;20732;-60
2024/02/07 02:14:01;;;;;;;6.13;3.90;;;3.80;99.90;;;;;;5003511;28;20407;-60
2024/02/07 02:16:26;;;;;;;13.17;4.27;;;3.80;99.90;;;;;;5003254;28;20447;-61
2024/02/07 02:18:53;;;;;;;7.00;3.50;;;3.90;99.90;;;;;;5008764;28;20551;-60
2024/02/07 02:21:24;;;;;;;8.17;3.83;;;3.90;99.90;;;;;;5010370;28;20203;-59
2024/02/07 02:23:49;;;;;;;8.20;3.17;;;3.90;99.90;;;;;;5014828;28;20411;-60
2024/02/07 02:26:38;;;;;;;9.33;5.30;;;3.90;99.90;;;;;;5004039;28;20435;-59
2024/02/07 02:29:32;;;;;;;6.70;3.77;;;3.90;99.90;;;;;;5004595;28;20195;-59
2024/02/07 02:31:58;;;;;;;10.30;3.87;;;3.90;99.90;;;;;;5001448;28;20521;-60
2024/02/07 02:34:27;;;;;;;11.27;4.20;;;3.90;99.90;;;;;;5013423;28;20415;-60
2024/02/07 02:36:53;;;;;;;10.50;4.60;;;3.90;99.90;;;;;;5003574;28;20427;-60
2024/02/07 02:39:19;;;;;;;8.03;4.03;;;3.90;99.90;;;;;;5008085;28;20848;-60
2024/02/07 02:41:45;;;;;;;8.13;4.23;;;3.90;99.90;;;;;;5013323;28;20482;-60
2024/02/07 02:44:11;;;;;;;8.80;3.80;;;3.90;99.90;;;;;;5018399;28;20203;-60
2024/02/07 02:46:37;;;;;;;11.07;4.37;;;3.90;99.90;;;;;;4999592;28;20439;-61
2024/02/07 02:49:03;;;;;;;6.00;4.13;;;3.90;99.90;;;;;;5011944;28;20447;-59
2024/02/07 02:51:29;;;;;;;7.43;4.10;;;3.90;99.90;;;;;;5011671;28;20188;-60
2024/02/07 02:53:54;;;;;;;6.97;4.60;;;3.90;99.90;;;;;;5017256;28;20184;-60
2024/02/07 02:56:20;;;;;;;8.10;3.70;;;3.90;99.90;;;;;;5006484;28;20913;-60
2024/02/07 02:58:46;;;;;;;6.70;4.27;;;3.90;99.90;;;;;;5010305;28;20201;-60
2024/02/07 03:01:11;;;;;;;7.13;4.20;;;4.00;99.90;;;;;;5009685;28;20199;-60
2024/02/07 03:03:37;;;;;;;5.87;4.17;;;4.00;99.90;;;;;;5004773;28;20177;-60
2024/02/07 03:06:07;;;;;;;7.90;3.70;;;4.00;99.90;;;;;;5006925;28;20629;-59
2024/02/07 03:08:54;;;;;;;8.60;4.27;;;4.10;99.90;;;;;;4995642;28;20444;-59
2024/02/07 03:11:20;;;;;;;5.90;3.67;;;4.10;99.90;;;;;;5005346;28;20439;-59
2024/02/07 03:13:46;;;;;;;9.00;4.27;;;4.20;99.90;;;;;;5006436;28;20443;-59
2024/02/07 03:16:12;;;;;;;8.47;4.37;;;4.20;99.90;;;;;;5008734;28;20411;-59
2024/02/07 03:18:38;;;;;;;6.40;4.60;;;4.20;99.90;;;;;;5000041;28;20299;-60
2024/02/07 03:21:05;;;;;;;8.53;4.60;;;4.20;99.90;;;;;;5006100;28;20485;-60
2024/02/07 03:23:34;;;;;;;6.40;3.80;;;4.20;99.90;;;;;;4997768;28;20442;-60
2024/02/07 03:26:01;;;;;;;9.47;4.30;;;4.20;99.90;;;;;;5014548;28;20735;-60
2024/02/07 03:28:27;;;;;;;10.13;4.40;;;4.20;99.90;;;;;;5002697;28;20439;-60
2024/02/07 03:30:53;;;;;;;8.67;4.47;;;4.20;99.90;;;;;;5004374;28;20505;-60
2024/02/07 03:33:19;;;;;;;5.80;4.20;;;4.20;99.90;;;;;;4997539;28;20886;-59
2024/02/07 03:35:45;;;;;;;7.43;4.13;;;4.20;99.90;;;;;;5015500;28;20310;-60
2024/02/07 03:38:11;;;;;;;7.77;4.10;;;4.20;99.90;;;;;;5002864;28;20485;-60
2024/02/07 03:40:37;;;;;;;5.43;4.23;;;4.10;99.90;;;;;;5001850;28;20287;-60
2024/02/07 03:43:03;;;;;;;4.33;3.50;;;4.10;99.90;;;;;;5003242;28;21201;-60
2024/02/07 03:45:32;;;;;;;7.43;4.00;;;4.10;99.90;;;;;;5003479;28;20161;-59
2024/02/07 03:47:58;;;;;;;5.87;4.10;;;4.10;99.90;;;;;;5004837;28;20483;-60
2024/02/07 03:50:27;;;;;;;10.43;5.03;;;4.10;99.90;;;;;;5009317;28;20831;-60
2024/02/07 03:52:55;;;;;;;8.00;4.50;;;4.10;99.90;;;;;;5006665;28;20180;-60
2024/02/07 03:55:20;;;;;;;4.40;3.73;;;4.10;99.90;;;;;;5009916;28;20855;-59
2024/02/07 03:57:48;;;;;;;7.70;4.77;;;4.10;99.90;;;;;;5005111;28;20522;-60
2024/02/07 04:00:14;;;;;;;9.23;4.40;;;4.00;99.90;;;;;;5008444;28;20334;-60
2024/02/07 04:02:45;;;;;;;7.17;4.30;;;4.00;99.90;;;;;;5000029;28;20452;-60
2024/02/07 04:05:11;;;;;;;8.83;4.13;;;4.00;99.90;;;;;;5008119;28;20466;-60
2024/02/07 04:07:37;;;;;;;9.50;4.77;;;4.00;99.90;;;;;;5001113;28;20423;-59
2024/02/07 04:10:04;;;;;;;11.17;4.90;;;4.00;99.90;;;;;;5008669;28;20435;-60
2024/02/07 05:17:31;;;;;;;8.63;6.00;;;3.70;99.90;;;;;;5009669;28;20522;-62
2024/02/07 05:19:57;;;;;;;7.50;5.63;;;3.70;99.90;;;;;;4999019;28;20279;-61
2024/02/07 05:22:23;;;;;;;8.17;5.50;;;3.60;99.90;;;;;;5009783;28;20165;-60
2024/02/07 05:24:51;;;;;;;6.97;5.50;;;3.60;99.90;;;;;;5001764;28;20526;-60
2024/02/07 05:27:17;;;;;;;12.13;5.63;;;3.60;99.90;;;;;;5005298;28;20267;-59
2024/02/07 05:29:43;;;;;;;8.33;5.83;;;3.60;99.90;;;;;;5007195;28;20442;-60
2024/02/07 05:32:09;;;;;;;10.90;6.10;;;3.60;99.90;;;;;;4999656;28;20436;-62
2024/02/07 05:34:35;;;;;;;8.70;5.67;;;3.60;99.90;;;;;;5018564;28;20449;-62
2024/02/07 05:37:04;;;;;;;13.57;7.10;;;3.50;99.90;;;;;;4993882;28;20448;-60
2024/02/07 05:39:35;;;;;;;9.20;5.83;;;3.50;99.90;;;;;;5007807;28;20461;-61
2024/02/07 05:42:01;;;;;;;8.40;5.87;;;3.50;99.90;;;;;;5007428;28;20455;-61
2024/02/07 05:44:27;;;;;;;9.87;6.30;;;3.50;99.90;;;;;;5004899;28;20467;-61
2024/02/07 05:46:55;;;;;;;11.57;6.70;;;3.50;99.90;;;;;;5003699;28;20509;-59
2024/02/07 05:49:22;;;;;;;10.60;6.97;;;3.40;99.90;;;;;;5004136;28;20450;-61
2024/02/07 05:51:57;;;;;;;13.73;6.63;;;3.40;99.90;;;;;;5003678;28;20496;-61
2024/02/07 05:54:26;;;;;;;10.20;7.07;;;3.40;99.90;;;;;;4999660;28;20435;-61
2024/02/07 05:56:52;;;;;;;16.30;6.20;;;3.40;99.90;;;;;;5005205;28;20428;-61
2024/02/07 05:59:19;;;;;;;9.53;6.67;;;3.40;99.90;;;;;;5008547;28;22111;-60
2024/02/07 06:01:45;;;;;;;10.40;6.87;;;3.30;99.90;;;;;;5005475;28;20219;-62
2024/02/07 06:04:10;;;;;;;12.43;6.40;;;3.30;99.90;;;;;;4991506;28;20442;-61
2024/02/07 06:06:37;;;;;;;10.40;5.87;;;3.30;99.90;;;;;;5013639;28;20781;-60
2024/02/07 06:09:05;;;;;;;10.73;6.27;;;3.30;99.90;;;;;;5005392;28;21142;-61
2024/02/07 06:11:41;;;;;;;11.10;6.93;;;3.30;99.90;;;;;;5008643;28;20446;-61
2024/02/07 06:14:16;;;;;;;10.50;7.10;;;3.30;99.90;;;;;;5007960;28;20580;-60
2024/02/07 06:16:42;;;;;;;11.70;6.70;;;3.30;99.90;;;;;;5005476;28;20450;-60
2024/02/07 06:19:07;;;;;;;13.63;7.17;;;3.40;99.90;;;;;;5007761;28;20467;-61
2024/02/07 06:21:33;;;;;;;14.17;7.17;;;3.40;99.90;;;;;;5003966;28;20205;-61
2024/02/07 06:23:58;;;;;;;16.17;7.20;;;3.40;99.90;;;;;;5003308;28;20183;-62
2024/02/07 06:26:24;;;;;;;11.20;7.23;;;3.30;99.90;;;;;;5003112;28;20192;-61
2024/02/07 06:28:50;;;;;;;10.93;7.00;;;3.40;99.90;;;;;;5006308;28;20201;-61
2024/02/07 06:31:17;;;;;;;15.43;6.93;;;3.30;99.90;;;;;;5005249;28;20513;-61
2024/02/07 06:33:43;;;;;;;11.60;7.33;;;3.30;99.90;;;;;;5002204;28;20173;-62
2024/02/07 06:36:09;;;;;;;14.33;7.50;;;3.30;99.90;;;;;;5002126;28;20477;-61
2024/02/07 06:38:35;;;;;;;10.30;7.33;;;3.30;99.90;;;;;;5005599;28;20203;-60
2024/02/07 06:41:00;;;;;;;13.43;7.60;;;3.40;99.90;;;;;;5001628;28;20455;-61
2024/02/07 06:43:27;;;;;;;11.03;6.60;;;3.40;99.90;;;;;;5005327;28;20839;-61
2024/02/07 06:45:52;;;;;;;14.37;7.43;;;3.40;99.90;;;;;;5007546;28;20176;-60
2024/02/07 06:48:19;;;;;;;14.93;7.27;;;3.40;99.90;;;;;;5006001;28;20447;-61
2024/02/07 06:50:45;;;;;;;14.40;6.57;;;3.40;99.90;;;;;;4999161;28;20179;-62
2024/02/07 06:53:11;;;;;;;10.87;6.57;;;3.40;99.90;;;;;;4999672;28;20511;-60
2024/02/07 06:55:37;;;;;;;10.77;6.50;;;3.40;99.90;;;;;;5007749;28;20507;-60
2024/02/07 06:58:02;;;;;;;15.10;7.33;;;3.40;99.90;;;;;;5016620;28;20214;-61
2024/02/07 07:00:28;;;;;;;11.33;6.30;;;3.40;99.90;;;;;;4999715;28;20197;-62
2024/02/07 07:02:54;;;;;;;12.13;6.63;;;3.50;99.90;;;;;;5005731;28;20199;-62
2024/02/07 07:05:19;;;;;;;11.80;6.43;;;3.50;99.90;;;;;;5014835;28;20175;-62
2024/02/07 07:07:45;;;;;;;14.90;7.20;;;3.50;99.90;;;;;;5003817;28;20196;-61
2024/02/07 07:10:10;;;;;;;10.00;5.30;;;3.50;99.90;;;;;;4998660;28;20181;-62
2024/02/07 07:12:36;;;;;;;10.10;5.50;;;3.60;99.90;;;;;;5007356;28;20659;-61
2024/02/07 07:15:02;;;;;;;11.07;5.40;;;3.70;99.90;;;;;;5007058;28;20204;-61
2024/02/07 07:17:27;;;;;;;12.63;6.00;;;3.80;99.90;;;;;;5000872;28;20718;-62
2024/02/07 07:19:53;;;;;;;12.47;5.90;;;3.90;99.90;;;;;;5002321;28;20212;-61
2024/02/07 07:22:19;;;;;;;11.40;6.27;;;4.00;99.90;;;;;;4995882;28;20187;-62
2024/02/07 07:24:47;;;;;;;10.20;5.30;;;4.10;99.90;;;;;;5008004;28;20180;-61
2024/02/07 07:27:13;;;;;;;12.13;5.10;;;4.20;99.90;;;;;;5005919;28;20591;-62
2024/02/07 07:29:38;;;;;;;10.47;5.00;;;4.20;99.90;;;;;;4992358;28;20456;-62
2024/02/07 07:32:04;;;;;;;12.87;5.17;;;4.30;99.90;;;;;;4997494;28;20181;-63
2024/02/07 07:34:30;;;;;;;8.73;5.50;;;4.40;99.90;;;;;;4999298;28;20184;-61
2024/02/07 07:36:56;;;;;;;8.67;4.83;;;4.40;99.90;;;;;;4998707;28;20187;-61
2024/02/07 07:39:21;;;;;;;11.67;5.00;;;4.50;99.90;;;;;;5000468;28;21131;-58
2024/02/07 07:41:47;;;;;;;13.27;5.33;;;4.50;99.90;;;;;;4999755;28;20212;-61
2024/02/07 07:44:13;;;;;;;25.53;5.80;;;4.60;99.90;;;;;;4998389;28;20215;-61
2024/02/07 07:46:38;;;;;;;10.33;5.70;;;4.60;99.90;;;;;;5002682;28;20200;-61
2024/02/07 07:49:04;;;;;;;17.37;5.40;;;4.70;99.90;;;;;;5007633;28;20204;-61
2024/02/07 07:51:30;;;;;;;8.37;5.20;;;4.70;99.90;;;;;;5002749;28;20184;-62
2024/02/07 07:53:55;;;;;;;11.50;5.80;;;4.70;99.90;;;;;;5005063;28;20267;-61
2024/02/07 07:56:21;;;;;;;13.83;5.83;;;4.80;99.90;;;;;;5010472;28;20557;-62
2024/02/07 07:58:50;;;;;;;8.33;4.90;;;4.80;99.90;;;;;;5004308;28;20299;-61
2024/02/07 08:01:19;;;;;;;13.70;4.60;;;4.90;99.90;;;;;;5004022;28;20750;-62
2024/02/07 08:03:45;;;;;;;11.67;5.70;;;4.90;99.90;;;;;;5001633;28;21210;-62
2024/02/07 08:06:12;;;;;;;11.40;5.70;;;4.90;99.90;;;;;;5008228;28;20436;-61
2024/02/07 08:08:37;;;;;;;14.30;6.00;;;4.90;99.90;;;;;;4998641;28;20447;-61
2024/02/07 08:11:04;;;;;;;10.40;5.77;;;5.00;99.90;;;;;;5000947;28;20443;-61
2024/02/07 08:13:29;;;;;;;8.90;5.27;;;5.00;99.90;;;;;;5007385;28;20655;-62
2024/02/07 08:15:55;;;;;;;10.37;4.90;;;5.00;99.90;;;;;;5006605;28;20440;-62
2024/02/07 08:18:21;;;;;;;9.80;5.10;;;5.00;99.90;;;;;;4999436;28;20213;-62
2024/02/07 08:20:46;;;;;;;7.13;4.90;;;5.00;99.90;;;;;;5003773;28;20216;-61
2024/02/07 08:23:12;;;;;;;8.87;5.17;;;5.00;99.90;;;;;;5006311;28;20427;-61
2024/02/07 08:25:38;;;;;;;9.40;5.60;;;5.10;99.90;;;;;;4999169;28;20176;-61
2024/02/07 08:28:04;;;;;;;14.57;5.60;;;5.10;99.90;;;;;;5005028;28;20600;-61
2024/02/07 08:30:30;;;;;;;8.87;5.07;;;5.10;99.90;;;;;;5002989;28;20835;-61
2024/02/07 08:32:56;;;;;;;14.13;5.30;;;5.20;99.90;;;;;;5003635;28;20444;-61
2024/02/07 08:35:22;;;;;;;12.57;5.27;;;5.20;99.90;;;;;;5003252;28;20279;-61
2024/02/07 08:37:47;;;;;;;12.57;5.13;;;5.20;99.90;;;;;;5003293;28;21000;-61
2024/02/07 08:40:13;;;;;;;15.60;5.23;;;5.30;99.90;;;;;;5000831;28;20212;-61
2024/02/07 08:42:39;;;;;;;8.33;4.90;;;5.30;99.90;;;;;;5000103;28;20205;-62
2024/02/07 08:45:05;;;;;;;8.47;4.50;;;5.30;99.90;;;;;;5001489;28;20470;-61
2024/02/07 08:47:31;;;;;;;14.33;4.63;;;5.30;99.90;;;;;;5004351;28;20315;-61
2024/02/07 08:49:56;;;;;;;9.50;4.60;;;5.40;99.90;;;;;;5006615;28;21021;-62
2024/02/07 08:52:22;;;;;;;11.50;5.10;;;5.40;99.90;;;;;;5003465;28;20183;-62
2024/02/07 08:54:48;;;;;;;11.90;5.70;;;5.40;99.90;;;;;;5006615;28;20192;-61
2024/02/07 08:57:14;;;;;;;10.47;5.70;;;5.40;99.90;;;;;;5006435;28;20280;-61
2024/02/07 08:59:40;;;;;;;8.87;4.90;;;5.40;99.90;;;;;;5009987;28;20533;-61
2024/02/07 09:02:09;;;;;;;11.33;5.80;;;5.40;99.90;;;;;;5001979;28;20208;-61
2024/02/07 09:04:34;;;;;;;8.33;5.37;;;5.50;99.90;;;;;;5007521;28;20442;-61
2024/02/07 09:07:00;;;;;;;13.53;5.50;;;5.50;99.90;;;;;;5003516;28;20432;-62
2024/02/07 09:09:25;;;;;;;10.77;5.43;;;5.50;99.90;;;;;;5009336;28;20234;-61
2024/02/07 09:11:51;;;;;;;14.23;5.73;;;5.50;99.90;;;;;;5009128;28;20196;-61
2024/02/07 09:14:17;;;;;;;11.07;5.00;;;5.50;99.90;;;;;;5006640;28;20200;-61
2024/02/07 09:16:42;;;;;;;9.67;5.70;;;5.50;99.90;;;;;;5005272;28;20207;-61
2024/02/07 09:19:08;;;;;;;7.87;5.00;;;5.50;99.90;;;;;;5007599;28;20220;-61
2024/02/07 09:21:34;;;;;;;10.40;5.47;;;5.50;99.90;;;;;;5009850;28;20219;-60
2024/02/07 09:24:00;;;;;;;9.87;4.40;;;5.50;99.90;;;;;;5003845;28;20184;-61
2024/02/07 09:26:32;;;;;;;10.27;4.80;;;5.50;99.90;;;;;;4997719;28;20578;-61
2024/02/07 09:28:58;;;;;;;7.43;4.73;;;5.50;99.90;;;;;;5001796;28;20459;-61
2024/02/07 09:31:24;;;;;;;10.03;4.90;;;5.50;99.90;;;;;;5016679;28;20476;-61
2024/02/07 09:33:49;;;;;;;16.47;5.40;;;5.50;99.90;;;;;;5009103;28;20447;-61
2024/02/07 09:36:15;;;;;;;17.13;5.00;;;5.50;99.90;;;;;;5004987;28;20184;-61
2024/02/07 09:38:41;;;;;;;7.53;4.93;;;5.50;99.90;;;;;;5003346;28;20208;-61
2024/02/07 09:41:08;;;;;;;14.13;5.97;;;5.50;99.90;;;;;;5003636;28;20202;-61
2024/02/07 09:43:34;;;;;;;9.50;5.33;;;5.50;99.90;;;;;;5009926;28;20200;-60
2024/02/07 09:46:00;;;;;;;15.10;4.93;;;5.50;99.90;;;;;;5010095;28;20438;-60
2024/02/07 09:48:26;;;;;;;14.47;5.20;;;5.50;99.90;;;;;;5009457;28;20451;-60
2024/02/07 09:50:58;;;;;;;6.87;4.97;;;5.50;99.90;;;;;;5008611;28;20434;-61
2024/02/07 09:53:25;;;;;;;11.33;6.00;;;5.60;99.90;;;;;;5012221;28;20440;-60
2024/02/07 09:55:53;;;;;;;12.90;5.23;;;5.60;99.90;;;;;;5008626;28;20435;-60
2024/02/07 09:58:22;;;;;;;11.77;5.70;;;5.70;99.90;;;;;;4997155;28;20451;-60
2024/02/07 10:00:51;;;;;;;12.30;4.73;;;5.70;99.90;;;;;;5003450;28;20463;-60
2024/02/07 10:03:23;;;;;;;9.27;5.00;;;5.80;99.90;;;;;;4994070;28;21494;-60
2024/02/07 10:05:51;;;;;;;8.93;4.97;;;5.90;99.90;;;;;;5000393;28;21072;-60
2024/02/07 10:08:17;;;;;;;7.50;4.90;;;5.90;99.90;;;;;;5001762;28;20447;-60
2024/02/07 10:10:48;;;;;;;10.10;4.90;;;6.00;99.90;;;;;;5005970;28;20467;-60
2024/02/07 10:13:16;;;;;;;7.57;4.40;;;6.10;99.90;;;;;;5002168;28;20437;-60
2024/02/07 10:15:43;;;;;;;10.13;5.00;;;6.20;99.90;;;;;;5002839;28;20435;-60
2024/02/07 10:18:09;;;;;;;7.23;5.00;;;6.20;99.90;;;;;;5005225;28;20471;-60
2024/02/07 10:20:34;;;;;;;10.23;4.67;;;6.20;99.90;;;;;;5004461;28;20465;-60
2024/02/07 10:23:00;;;;;;;12.07;4.93;;;6.30;99.90;;;;;;5010583;28;20941;-61
2024/02/07 10:25:25;;;;;;;11.60;5.13;;;6.30;99.90;;;;;;5006662;28;20168;-60
2024/02/07 10:28:01;;;;;;;10.53;6.00;;;6.30;99.90;;;;;;5006538;28;20185;-61
2024/02/07 10:30:27;;;;;;;8.23;4.80;;;6.30;99.90;;;;;;4998556;28;20206;-60
2024/02/07 10:32:52;;;;;;;12.87;4.67;;;6.30;99.90;;;;;;4999019;28;20534;-60
2024/02/07 10:35:18;;;;;;;9.50;4.17;;;6.30;99.90;;;;;;5001999;28;20191;-62
2024/02/07 10:37:44;;;;;;;6.70;4.70;;;6.40;99.90;;;;;;5003057;28;20191;-60
2024/02/07 10:40:11;;;;;;;8.30;4.90;;;6.40;99.90;;;;;;5006458;28;20195;-59
2024/02/07 10:42:39;;;;;;;10.40;5.47;;;6.40;99.90;;;;;;5003122;28;20707;-60
2024/02/07 10:45:13;;;;;;;12.03;5.80;;;6.40;99.90;;;;;;5007581;28;20505;-58
2024/02/07 10:47:39;;;;;;;10.53;5.47;;;6.40;99.90;;;;;;5007098;28;20442;-56
2024/02/07 10:50:08;;;;;;;10.50;5.20;;;6.50;99.90;;;;;;5003504;28;20447;-59
2024/02/07 10:52:34;;;;;;;12.67;5.00;;;6.50;99.90;;;;;;5007372;28;20169;-60
2024/02/07 10:55:00;;;;;;;13.87;4.70;;;6.50;99.90;;;;;;5003590;28;20423;-60
2024/02/07 10:57:35;;;;;;;18.87;5.03;;;6.50;99.90;;;;;;5009892;28;21016;-60
2024/02/07 11:00:06;;;;;;;11.73;4.83;;;6.50;99.90;;;;;;5006111;28;20238;-60
2024/02/07 11:02:32;;;;;;;12.70;6.00;;;6.50;99.90;;;;;;5011050;28;20426;-60
2024/02/07 11:05:00;;;;;;;12.27;5.17;;;6.60;99.90;;;;;;5002293;28;21157;-61
2024/02/07 11:07:26;;;;;;;6.63;4.63;;;6.60;99.90;;;;;;5003404;28;20457;-62
2024/02/07 11:09:53;;;;;;;7.97;5.07;;;6.50;99.90;;;;;;4999420;28;20868;-61
2024/02/07 11:12:18;;;;;;;14.90;5.57;;;6.50;99.90;;;;;;5001741;28;20195;-61
2024/02/07 11:14:46;;;;;;;10.57;5.77;;;6.40;99.90;;;;;;5004347;28;20439;-61
2024/02/07 11:17:16;;;;;;;16.93;5.87;;;6.40;99.90;;;;;;5016423;28;20666;-61
2024/02/07 11:19:43;;;;;;;10.27;5.73;;;6.40;99.90;;;;;;5006513;28;20948;-59
2024/02/07 11:22:15;;;;;;;13.80;5.73;;;6.30;99.90;;;;;;5003650;28;20495;-61
2024/02/07 11:24:42;;;;;;;10.90;5.60;;;6.30;99.90;;;;;;5005503;28;20490;-61
2024/02/07 11:27:10;;;;;;;20.43;5.80;;;6.30;99.90;;;;;;4997266;28;20423;-61
2024/02/07 11:29:36;;;;;;;8.70;5.60;;;6.30;99.90;;;;;;5006047;28;20970;-61
2024/02/07 11:32:03;;;;;;;10.80;6.30;;;6.30;99.90;;;;;;5007581;28;20427;-61
2024/02/07 11:34:31;;;;;;;12.13;6.43;;;6.30;99.90;;;;;;5005573;28;20430;-61
2024/02/07 11:36:57;;;;;;;12.70;5.07;;;6.30;99.90;;;;;;5011645;28;20493;-62
2024/02/07 11:39:22;;;;;;;12.77;6.10;;;6.40;99.90;;;;;;5007418;28;20447;-62
2024/02/07 11:41:49;;;;;;;8.03;5.33;;;6.40;99.90;;;;;;5001445;28;20211;-61
2024/02/07 11:44:15;;;;;;;10.37;6.33;;;6.40;99.90;;;;;;5007251;28;20706;-61
2024/02/07 11:46:50;;;;;;;11.57;6.30;;;6.40;99.90;;;;;;5002389;28;20418;-61
2024/02/07 11:49:19;;;;;;;13.60;5.47;;;6.40;99.90;;;;;;5003992;28;20916;-62
2024/02/07 11:51:44;;;;;;;9.27;6.00;;;6.40;99.90;;;;;;5006591;28;20435;-61
2024/02/07 11:54:10;;;;;;;13.53;7.77;;;6.50;99.90;;;;;;5004011;28;20436;-59
2024/02/07 11:56:36;;;;;;;9.07;6.00;;;6.50;99.90;;;;;;5002940;28;20698;-58
2024/02/07 11:59:03;;;;;;;11.43;5.90;;;6.60;99.90;;;;;;5002566;28;20451;-61
2024/02/07 12:01:30;;;;;;;14.17;6.47;;;6.60;99.90;;;;;;4999305;28;20204;-60
2024/02/07 12:03:57;;;;;;;17.87;5.63;;;6.70;99.90;;;;;;5004839;28;20430;-60
2024/02/07 12:06:23;;;;;;;9.40;5.63;;;6.70;99.90;;;;;;5002354;28;20442;-60
2024/02/07 12:08:49;;;;;;;8.30;5.57;;;6.70;99.90;;;;;;5001643;28;20475;-60
2024/02/07 12:11:15;;;;;;;16.20;7.60;;;6.80;99.90;;;;;;4997517;28;21003;-61
2024/02/07 12:13:41;;;;;;;11.83;6.07;;;6.80;99.90;;;;;;5006708;28;20176;-60
2024/02/07 12:16:09;;;;;;;11.50;6.10;;;6.90;99.90;;;;;;5003514;28;20950;-60
2024/02/07 12:18:35;;;;;;;8.40;4.80;;;7.00;99.90;;;;;;5004545;28;20545;-59
2024/02/07 12:21:02;;;;;;;10.17;6.60;;;7.00;99.90;;;;;;5003489;28;20466;-61
2024/02/07 12:23:29;;;;;;;14.33;6.13;;;7.10;99.90;;;;;;5008808;28;20423;-60
2024/02/07 12:26:02;;;;;;;14.37;5.33;;;7.10;99.90;;;;;;5008136;28;20453;-60
2024/02/07 12:28:28;;;;;;;8.30;5.03;;;7.00;99.90;;;;;;5006291;28;20806;-60
2024/02/07 12:30:55;;;;;;;12.70;5.87;;;7.00;99.90;;;;;;5007762;28;20438;-60
2024/02/07 12:33:21;;;;;;;8.70;5.47;;;7.00;99.90;;;;;;5008182;28;20941;-60
2024/02/07 12:35:53;;;;;;;9.50;5.30;;;7.10;99.90;;;;;;5006447;28;20453;-60
2024/02/07 12:38:20;;;;;;;12.40;4.97;;;7.00;99.90;;;;;;5005996;28;20455;-60
2024/02/07 12:40:47;;;;;;;10.17;6.20;;;7.00;99.90;;;;;;5013680;28;20459;-60
2024/02/07 12:43:13;;;;;;;11.77;5.77;;;7.00;99.90;;;;;;5009332;28;20427;-60
2024/02/07 12:45:39;;;;;;;8.30;5.60;;;7.00;99.90;;;;;;5008179;28;20439;-59
2024/02/07 12:48:05;;;;;;;11.73;5.83;;;7.00;99.90;;;;;;5003251;28;20459;-60
2024/02/07 12:50:30;;;;;;;8.73;5.70;;;7.00;99.90;;;;;;5012427;28;20199;-59
2024/02/07 12:52:56;;;;;;;19.03;5.33;;;6.90;99.90;;;;;;5010538;28;20434;-60
2024/02/07 12:55:21;;;;;;;9.83;5.17;;;6.90;99.90;;;;;;5008625;28;20215;-60
2024/02/07 12:57:47;;;;;;;11.70;4.87;;;6.90;99.90;;;;;;5008125;28;20382;-60
2024/02/07 13:00:13;;;;;;;15.83;5.00;;;6.90;99.90;;;;;;5009561;28;20256;-60
2024/02/07 13:02:46;;;;;;;10.60;5.70;;;6.90;99.90;;;;;;5011197;28;20183;-59
2024/02/07 13:05:12;;;;;;;11.73;6.20;;;6.90;99.90;;;;;;5004589;28;20417;-59
2024/02/07 13:07:37;;;;;;;10.80;5.23;;;6.90;99.90;;;;;;5005914;28;20433;-61
2024/02/07 13:10:04;;;;;;;13.07;5.53;;;6.90;99.90;;;;;;5010614;28;20203;-59
2024/02/07 13:12:29;;;;;;;10.00;4.50;;;6.90;99.90;;;;;;5004339;28;20176;-60
2024/02/07 13:14:55;;;;;;;10.47;4.67;;;6.90;99.90;;;;;;4993589;28;20808;-60
2024/02/07 13:17:20;;;;;;;6.17;4.43;;;7.00;99.90;;;;;;5007247;28;20188;-61
2024/02/07 13:19:46;;;;;;;6.17;3.83;;;7.00;99.90;;;;;;5008096;28;20735;-61
2024/02/07 13:22:13;;;;;;;5.07;3.20;;;7.00;99.90;;;;;;5001486;28;20204;-59
2024/02/07 13:24:39;;;;;;;5.87;3.63;;;7.10;99.90;;;;;;4999719;28;20595;-60
2024/02/07 13:27:05;;;;;;;8.67;3.63;;;7.10;99.90;;;;;;5002730;28;20435;-61
2024/02/07 13:29:30;;;;;;;11.23;3.83;;;7.20;99.90;;;;;;5008142;28;20200;-61
2024/02/07 13:31:56;;;;;;;12.40;4.27;;;7.20;99.90;;;;;;5011662;28;20223;-62
2024/02/07 13:34:22;;;;;;;7.60;4.00;;;7.20;99.90;;;;;;5005018;28;20176;-61
2024/02/07 13:36:47;;;;;;;9.67;4.60;;;7.30;99.90;;;;;;5007069;28;20180;-61
2024/02/07 13:39:13;;;;;;;13.50;5.10;;;7.30;99.90;;;;;;5003647;28;20208;-61
2024/02/07 13:41:38;;;;;;;15.87;4.17;;;7.30;99.90;;;;;;5006151;28;20200;-60
2024/02/07 13:44:04;;;;;;;7.53;3.70;;;7.30;99.90;;;;;;5005744;28;20170;-60
2024/02/07 13:46:30;;;;;;;6.33;3.70;;;7.40;99.90;;;;;;5007652;28;20643;-61
2024/02/07 13:49:02;;;;;;;8.80;3.40;;;7.40;99.90;;;;;;5005584;28;20188;-62
2024/02/07 13:51:27;;;;;;;6.37;3.50;;;7.40;99.90;;;;;;5008688;28;20479;-58
2024/02/07 13:53:53;;;;;;;9.03;4.20;;;7.40;99.90;;;;;;5011036;28;21060;-58
2024/02/07 13:56:20;;;;;;;6.00;3.53;;;7.40;99.90;;;;;;5005120;28;20177;-58